sensor_id;sensor_type;location;lat;lon;timestamp;P1;durP1;ratioP1;P2;durP2;ratioP2
4519;SDS011;2272;49.226;8.108;2023-04-03T00:01:27;2.87;;;2.67;;
4519;SDS011;2272;49.226;8.108;2023-04-03T00:03:54;2.90;;;2.60;;
4519;SDS011;2272;49.226;8.108;2023-04-03T00:06:21;4.60;;;2.60;;
4519;SDS011;2272;49.226;8.108;2023-04-03T00:08:52;4.00;;;2.40;;
4519;SDS011;2272;49.226;8.108;2023-04-03T00:11:18;3.23;;;2.50;;
4519;SDS011;2272;49.226;8.108;2023-04-03T00:13:46;2.67;;;2.57;;
4519;SDS011;2272;49.226;8.108;2023-04-03T00:16:13;2.30;;;2.20;;
4519;SDS011;2272;49.226;8.108;2023-04-03T00:18:40;2.90;;;2.70;;
4519;SDS011;2272;49.226;8.108;2023-04-03T00:21:07;3.60;;;2.23;;
4519;SDS011;2272;49.226;8.108;2023-04-03T00:23:36;2.70;;;2.50;;
4519;SDS011;2272;49.226;8.108;2023-04-03T00:26:04;2.80;;;2.60;;
4519;SDS011;2272;49.226;8.108;2023-04-03T00:28:31;3.30;;;3.10;;
4519;SDS011;2272;49.226;8.108;2023-04-03T00:30:58;2.60;;;2.50;;
4519;SDS011;2272;49.226;8.108;2023-04-03T00:33:24;2.40;;;2.30;;
4519;SDS011;2272;49.226;8.108;2023-04-03T00:35:51;4.50;;;2.73;;
4519;SDS011;2272;49.226;8.108;2023-04-03T00:38:18;6.03;;;2.80;;
4519;SDS011;2272;49.226;8.108;2023-04-03T00:40:46;4.53;;;3.13;;
4519;SDS011;2272;49.226;8.108;2023-04-03T00:43:15;6.63;;;2.97;;
4519;SDS011;2272;49.226;8.108;2023-04-03T00:45:44;3.33;;;3.13;;
4519;SDS011;2272;49.226;8.108;2023-04-03T00:48:13;5.70;;;3.37;;
4519;SDS011;2272;49.226;8.108;2023-04-03T00:50:43;3.20;;;2.77;;
4519;SDS011;2272;49.226;8.108;2023-04-03T00:53:12;10.93;;;3.43;;
4519;SDS011;2272;49.226;8.108;2023-04-03T00:55:42;7.10;;;3.00;;
4519;SDS011;2272;49.226;8.108;2023-04-03T00:58:09;3.57;;;2.97;;
4519;SDS011;2272;49.226;8.108;2023-04-03T01:00:40;7.03;;;3.60;;
4519;SDS011;2272;49.226;8.108;2023-04-03T01:03:10;5.13;;;3.00;;
4519;SDS011;2272;49.226;8.108;2023-04-03T01:05:37;3.17;;;2.93;;
4519;SDS011;2272;49.226;8.108;2023-04-03T01:08:05;2.77;;;2.47;;
4519;SDS011;2272;49.226;8.108;2023-04-03T01:10:32;3.10;;;2.80;;
4519;SDS011;2272;49.226;8.108;2023-04-03T01:12:59;4.87;;;3.00;;
4519;SDS011;2272;49.226;8.108;2023-04-03T01:15:27;3.73;;;2.90;;
4519;SDS011;2272;49.226;8.108;2023-04-03T01:17:59;2.63;;;2.43;;
4519;SDS011;2272;49.226;8.108;2023-04-03T01:23:50;3.30;;;3.10;;
4519;SDS011;2272;49.226;8.108;2023-04-03T01:26:24;5.33;;;3.97;;
4519;SDS011;2272;49.226;8.108;2023-04-03T01:28:53;4.87;;;3.67;;
4519;SDS011;2272;49.226;8.108;2023-04-03T01:31:22;4.53;;;3.33;;
4519;SDS011;2272;49.226;8.108;2023-04-03T01:33:53;3.43;;;3.10;;
4519;SDS011;2272;49.226;8.108;2023-04-03T01:36:22;5.03;;;3.00;;
4519;SDS011;2272;49.226;8.108;2023-04-03T01:38:50;7.00;;;3.07;;
4519;SDS011;2272;49.226;8.108;2023-04-03T01:41:17;4.03;;;3.50;;
4519;SDS011;2272;49.226;8.108;2023-04-03T01:43:46;5.47;;;3.07;;
4519;SDS011;2272;49.226;8.108;2023-04-03T01:46:13;3.00;;;2.80;;
4519;SDS011;2272;49.226;8.108;2023-04-03T01:48:40;2.80;;;2.70;;
4519;SDS011;2272;49.226;8.108;2023-04-03T01:51:08;3.23;;;2.67;;
4519;SDS011;2272;49.226;8.108;2023-04-03T01:53:35;4.07;;;3.67;;
4519;SDS011;2272;49.226;8.108;2023-04-03T01:56:01;2.90;;;2.70;;
4519;SDS011;2272;49.226;8.108;2023-04-03T01:58:28;12.67;;;3.27;;
4519;SDS011;2272;49.226;8.108;2023-04-03T02:00:55;3.80;;;3.20;;
4519;SDS011;2272;49.226;8.108;2023-04-03T02:03:21;2.70;;;2.60;;
4519;SDS011;2272;49.226;8.108;2023-04-03T02:05:49;7.20;;;3.20;;
4519;SDS011;2272;49.226;8.108;2023-04-03T02:08:17;2.83;;;2.30;;
4519;SDS011;2272;49.226;8.108;2023-04-03T02:10:46;3.47;;;2.70;;
4519;SDS011;2272;49.226;8.108;2023-04-03T02:13:13;2.93;;;2.73;;
4519;SDS011;2272;49.226;8.108;2023-04-03T02:15:40;3.57;;;3.37;;
4519;SDS011;2272;49.226;8.108;2023-04-03T02:18:07;7.00;;;3.03;;
4519;SDS011;2272;49.226;8.108;2023-04-03T02:20:34;3.93;;;3.20;;
4519;SDS011;2272;49.226;8.108;2023-04-03T02:23:01;4.43;;;3.50;;
4519;SDS011;2272;49.226;8.108;2023-04-03T02:25:29;3.87;;;3.50;;
4519;SDS011;2272;49.226;8.108;2023-04-03T02:27:57;4.73;;;3.97;;
4519;SDS011;2272;49.226;8.108;2023-04-03T02:30:24;8.90;;;3.73;;
4519;SDS011;2272;49.226;8.108;2023-04-03T02:32:51;4.40;;;4.00;;
4519;SDS011;2272;49.226;8.108;2023-04-03T02:35:18;6.33;;;4.20;;
4519;SDS011;2272;49.226;8.108;2023-04-03T02:37:45;3.90;;;3.60;;
4519;SDS011;2272;49.226;8.108;2023-04-03T02:40:11;3.40;;;3.20;;
4519;SDS011;2272;49.226;8.108;2023-04-03T02:42:40;4.57;;;4.17;;
4519;SDS011;2272;49.226;8.108;2023-04-03T02:45:07;5.20;;;4.00;;
4519;SDS011;2272;49.226;8.108;2023-04-03T02:47:34;8.63;;;4.23;;
4519;SDS011;2272;49.226;8.108;2023-04-03T02:50:00;4.60;;;3.80;;
4519;SDS011;2272;49.226;8.108;2023-04-03T02:52:27;5.23;;;4.80;;
4519;SDS011;2272;49.226;8.108;2023-04-03T02:54:54;8.20;;;4.53;;
4519;SDS011;2272;49.226;8.108;2023-04-03T02:57:20;4.50;;;4.20;;
4519;SDS011;2272;49.226;8.108;2023-04-03T02:59:49;4.60;;;4.17;;
4519;SDS011;2272;49.226;8.108;2023-04-03T03:02:15;5.13;;;4.17;;
4519;SDS011;2272;49.226;8.108;2023-04-03T03:04:42;4.97;;;4.57;;
4519;SDS011;2272;49.226;8.108;2023-04-03T03:07:08;4.17;;;3.87;;
4519;SDS011;2272;49.226;8.108;2023-04-03T03:09:35;4.30;;;4.00;;
4519;SDS011;2272;49.226;8.108;2023-04-03T03:12:02;4.90;;;4.50;;
4519;SDS011;2272;49.226;8.108;2023-04-03T03:14:29;7.50;;;4.80;;
4519;SDS011;2272;49.226;8.108;2023-04-03T03:16:57;4.60;;;4.00;;
4519;SDS011;2272;49.226;8.108;2023-04-03T03:19:24;4.47;;;4.00;;
4519;SDS011;2272;49.226;8.108;2023-04-03T03:21:51;4.13;;;3.33;;
4519;SDS011;2272;49.226;8.108;2023-04-03T03:24:17;4.90;;;4.20;;
4519;SDS011;2272;49.226;8.108;2023-04-03T03:26:44;4.60;;;4.00;;
4519;SDS011;2272;49.226;8.108;2023-04-03T03:29:11;8.30;;;4.00;;
4519;SDS011;2272;49.226;8.108;2023-04-03T03:31:38;5.70;;;4.07;;
4519;SDS011;2272;49.226;8.108;2023-04-03T03:34:06;4.70;;;4.30;;
4519;SDS011;2272;49.226;8.108;2023-04-03T03:36:32;3.77;;;3.47;;
4519;SDS011;2272;49.226;8.108;2023-04-03T03:38:59;9.77;;;4.40;;
4519;SDS011;2272;49.226;8.108;2023-04-03T03:41:26;3.77;;;3.57;;
4519;SDS011;2272;49.226;8.108;2023-04-03T03:44:07;5.63;;;3.80;;
4519;SDS011;2272;49.226;8.108;2023-04-03T03:46:33;4.80;;;3.97;;
4519;SDS011;2272;49.226;8.108;2023-04-03T03:49:00;4.20;;;3.90;;
4519;SDS011;2272;49.226;8.108;2023-04-03T03:51:28;3.77;;;3.47;;
4519;SDS011;2272;49.226;8.108;2023-04-03T03:53:55;4.23;;;3.93;;
4519;SDS011;2272;49.226;8.108;2023-04-03T03:56:21;7.37;;;4.90;;
4519;SDS011;2272;49.226;8.108;2023-04-03T03:58:48;3.93;;;3.63;;
4519;SDS011;2272;49.226;8.108;2023-04-03T04:01:15;3.30;;;3.10;;
4519;SDS011;2272;49.226;8.108;2023-04-03T04:03:45;6.17;;;4.10;;
4519;SDS011;2272;49.226;8.108;2023-04-03T04:06:11;4.03;;;3.50;;
4519;SDS011;2272;49.226;8.108;2023-04-03T04:08:39;3.53;;;3.33;;
4519;SDS011;2272;49.226;8.108;2023-04-03T04:11:06;3.93;;;3.47;;
4519;SDS011;2272;49.226;8.108;2023-04-03T04:13:33;6.77;;;4.00;;
4519;SDS011;2272;49.226;8.108;2023-04-03T04:16:00;5.03;;;4.17;;
4519;SDS011;2272;49.226;8.108;2023-04-03T04:18:27;4.00;;;3.50;;
4519;SDS011;2272;49.226;8.108;2023-04-03T04:20:54;4.33;;;3.97;;
4519;SDS011;2272;49.226;8.108;2023-04-03T04:23:21;7.23;;;3.77;;
4519;SDS011;2272;49.226;8.108;2023-04-03T04:25:49;4.87;;;3.20;;
4519;SDS011;2272;49.226;8.108;2023-04-03T04:28:17;5.03;;;3.87;;
4519;SDS011;2272;49.226;8.108;2023-04-03T04:30:44;3.70;;;3.40;;
4519;SDS011;2272;49.226;8.108;2023-04-03T04:33:11;5.03;;;4.53;;
4519;SDS011;2272;49.226;8.108;2023-04-03T04:35:39;3.83;;;3.53;;
4519;SDS011;2272;49.226;8.108;2023-04-03T04:38:07;6.17;;;4.23;;
4519;SDS011;2272;49.226;8.108;2023-04-03T04:40:34;8.13;;;4.10;;
4519;SDS011;2272;49.226;8.108;2023-04-03T04:43:04;6.17;;;5.20;;
4519;SDS011;2272;49.226;8.108;2023-04-03T04:45:31;7.50;;;3.80;;
4519;SDS011;2272;49.226;8.108;2023-04-03T04:47:57;4.63;;;4.20;;
4519;SDS011;2272;49.226;8.108;2023-04-03T04:50:24;3.57;;;3.27;;
4519;SDS011;2272;49.226;8.108;2023-04-03T04:52:51;5.33;;;3.77;;
4519;SDS011;2272;49.226;8.108;2023-04-03T04:55:25;5.93;;;3.90;;
4519;SDS011;2272;49.226;8.108;2023-04-03T04:57:51;8.53;;;4.10;;
4519;SDS011;2272;49.226;8.108;2023-04-03T05:00:20;3.50;;;3.30;;
4519;SDS011;2272;49.226;8.108;2023-04-03T05:02:47;6.37;;;3.83;;
4519;SDS011;2272;49.226;8.108;2023-04-03T05:05:14;9.80;;;4.33;;
4519;SDS011;2272;49.226;8.108;2023-04-03T05:07:41;8.30;;;4.57;;
4519;SDS011;2272;49.226;8.108;2023-04-03T05:10:08;4.63;;;4.20;;
4519;SDS011;2272;49.226;8.108;2023-04-03T05:12:36;5.30;;;4.23;;
4519;SDS011;2272;49.226;8.108;2023-04-03T05:15:03;5.67;;;3.00;;
4519;SDS011;2272;49.226;8.108;2023-04-03T05:17:32;6.10;;;3.53;;
4519;SDS011;2272;49.226;8.108;2023-04-03T05:19:59;5.60;;;4.20;;
4519;SDS011;2272;49.226;8.108;2023-04-03T05:22:25;5.90;;;4.60;;
4519;SDS011;2272;49.226;8.108;2023-04-03T05:24:52;4.30;;;3.90;;
4519;SDS011;2272;49.226;8.108;2023-04-03T05:27:19;5.17;;;4.20;;
4519;SDS011;2272;49.226;8.108;2023-04-03T05:29:45;3.57;;;3.33;;
4519;SDS011;2272;49.226;8.108;2023-04-03T05:32:12;4.13;;;3.83;;
4519;SDS011;2272;49.226;8.108;2023-04-03T05:34:40;4.83;;;4.00;;
4519;SDS011;2272;49.226;8.108;2023-04-03T05:37:07;8.30;;;3.80;;
4519;SDS011;2272;49.226;8.108;2023-04-03T05:39:33;5.60;;;5.00;;
4519;SDS011;2272;49.226;8.108;2023-04-03T05:42:00;5.03;;;4.60;;
4519;SDS011;2272;49.226;8.108;2023-04-03T05:44:27;5.23;;;4.27;;
4519;SDS011;2272;49.226;8.108;2023-04-03T05:46:53;4.97;;;4.53;;
4519;SDS011;2272;49.226;8.108;2023-04-03T05:49:20;6.87;;;4.80;;
4519;SDS011;2272;49.226;8.108;2023-04-03T05:51:49;5.40;;;4.90;;
4519;SDS011;2272;49.226;8.108;2023-04-03T05:54:17;7.50;;;4.33;;
4519;SDS011;2272;49.226;8.108;2023-04-03T05:56:47;5.37;;;4.00;;
4519;SDS011;2272;49.226;8.108;2023-04-03T05:59:15;5.33;;;4.83;;
4519;SDS011;2272;49.226;8.108;2023-04-03T06:01:42;10.03;;;5.10;;
4519;SDS011;2272;49.226;8.108;2023-04-03T06:04:09;6.60;;;4.90;;
4519;SDS011;2272;49.226;8.108;2023-04-03T06:06:45;9.03;;;5.57;;
4519;SDS011;2272;49.226;8.108;2023-04-03T06:09:15;8.97;;;4.90;;
4519;SDS011;2272;49.226;8.108;2023-04-03T06:11:42;18.43;;;4.90;;
4519;SDS011;2272;49.226;8.108;2023-04-03T06:14:09;5.83;;;5.23;;
4519;SDS011;2272;49.226;8.108;2023-04-03T06:16:39;7.70;;;5.20;;
4519;SDS011;2272;49.226;8.108;2023-04-03T06:19:05;7.63;;;4.63;;
4519;SDS011;2272;49.226;8.108;2023-04-03T06:21:33;11.30;;;5.30;;
4519;SDS011;2272;49.226;8.108;2023-04-03T06:24:00;5.40;;;4.30;;
4519;SDS011;2272;49.226;8.108;2023-04-03T06:26:29;4.90;;;4.50;;
4519;SDS011;2272;49.226;8.108;2023-04-03T06:28:55;4.50;;;3.83;;
4519;SDS011;2272;49.226;8.108;2023-04-03T06:31:22;4.47;;;4.07;;
4519;SDS011;2272;49.226;8.108;2023-04-03T06:33:49;8.70;;;4.90;;
4519;SDS011;2272;49.226;8.108;2023-04-03T06:36:17;4.60;;;4.20;;
4519;SDS011;2272;49.226;8.108;2023-04-03T06:38:46;3.90;;;3.53;;
4519;SDS011;2272;49.226;8.108;2023-04-03T06:41:13;4.30;;;3.90;;
4519;SDS011;2272;49.226;8.108;2023-04-03T06:43:42;7.87;;;3.67;;
4519;SDS011;2272;49.226;8.108;2023-04-03T06:46:12;6.37;;;4.20;;
4519;SDS011;2272;49.226;8.108;2023-04-03T06:48:40;8.13;;;4.80;;
4519;SDS011;2272;49.226;8.108;2023-04-03T06:51:10;4.23;;;3.90;;
4519;SDS011;2272;49.226;8.108;2023-04-03T06:53:45;9.10;;;4.80;;
4519;SDS011;2272;49.226;8.108;2023-04-03T06:56:12;7.70;;;4.77;;
4519;SDS011;2272;49.226;8.108;2023-04-03T06:58:38;4.27;;;3.97;;
4519;SDS011;2272;49.226;8.108;2023-04-03T07:01:06;5.80;;;4.47;;
4519;SDS011;2272;49.226;8.108;2023-04-03T07:03:34;10.87;;;5.20;;
4519;SDS011;2272;49.226;8.108;2023-04-03T07:06:01;4.77;;;4.30;;
4519;SDS011;2272;49.226;8.108;2023-04-03T07:08:28;6.10;;;3.73;;
4519;SDS011;2272;49.226;8.108;2023-04-03T07:10:55;7.10;;;4.23;;
4519;SDS011;2272;49.226;8.108;2023-04-03T07:13:22;13.03;;;5.97;;
4519;SDS011;2272;49.226;8.108;2023-04-03T07:15:49;6.17;;;4.50;;
4519;SDS011;2272;49.226;8.108;2023-04-03T07:18:17;5.20;;;3.90;;
4519;SDS011;2272;49.226;8.108;2023-04-03T07:20:44;3.80;;;3.43;;
4519;SDS011;2272;49.226;8.108;2023-04-03T07:23:11;4.27;;;3.87;;
4519;SDS011;2272;49.226;8.108;2023-04-03T07:25:41;5.03;;;4.50;;
4519;SDS011;2272;49.226;8.108;2023-04-03T07:28:09;5.20;;;4.70;;
4519;SDS011;2272;49.226;8.108;2023-04-03T07:30:41;7.83;;;4.23;;
4519;SDS011;2272;49.226;8.108;2023-04-03T07:33:08;5.03;;;4.60;;
4519;SDS011;2272;49.226;8.108;2023-04-03T07:35:36;5.47;;;4.17;;
4519;SDS011;2272;49.226;8.108;2023-04-03T07:38:03;11.37;;;4.57;;
4519;SDS011;2272;49.226;8.108;2023-04-03T07:40:30;4.20;;;3.90;;
4519;SDS011;2272;49.226;8.108;2023-04-03T07:42:57;4.87;;;4.40;;
4519;SDS011;2272;49.226;8.108;2023-04-03T07:45:24;5.77;;;4.80;;
4519;SDS011;2272;49.226;8.108;2023-04-03T07:47:51;4.53;;;4.23;;
4519;SDS011;2272;49.226;8.108;2023-04-03T07:50:18;5.87;;;5.33;;
4519;SDS011;2272;49.226;8.108;2023-04-03T07:52:47;5.20;;;4.70;;
4519;SDS011;2272;49.226;8.108;2023-04-03T07:55:15;4.90;;;4.50;;
4519;SDS011;2272;49.226;8.108;2023-04-03T07:57:42;8.07;;;4.80;;
4519;SDS011;2272;49.226;8.108;2023-04-03T08:00:10;12.97;;;4.93;;
4519;SDS011;2272;49.226;8.108;2023-04-03T08:02:37;5.23;;;4.73;;
4519;SDS011;2272;49.226;8.108;2023-04-03T08:05:04;8.20;;;3.70;;
4519;SDS011;2272;49.226;8.108;2023-04-03T08:07:31;4.47;;;3.90;;
4519;SDS011;2272;49.226;8.108;2023-04-03T08:09:59;3.90;;;3.57;;
4519;SDS011;2272;49.226;8.108;2023-04-03T08:12:26;5.43;;;3.40;;
4519;SDS011;2272;49.226;8.108;2023-04-03T08:14:53;4.20;;;2.93;;
4519;SDS011;2272;49.226;8.108;2023-04-03T08:17:20;6.53;;;3.23;;
4519;SDS011;2272;49.226;8.108;2023-04-03T08:19:47;5.23;;;2.87;;
4519;SDS011;2272;49.226;8.108;2023-04-03T08:22:13;5.23;;;2.87;;
4519;SDS011;2272;49.226;8.108;2023-04-03T08:24:41;4.33;;;3.30;;
4519;SDS011;2272;49.226;8.108;2023-04-03T08:27:09;2.90;;;2.63;;
4519;SDS011;2272;49.226;8.108;2023-04-03T08:29:35;9.13;;;3.30;;
4519;SDS011;2272;49.226;8.108;2023-04-03T08:32:02;4.70;;;3.17;;
4519;SDS011;2272;49.226;8.108;2023-04-03T08:34:29;4.63;;;2.90;;
4519;SDS011;2272;49.226;8.108;2023-04-03T08:36:59;25.47;;;3.27;;
4519;SDS011;2272;49.226;8.108;2023-04-03T08:39:26;4.97;;;2.80;;
4519;SDS011;2272;49.226;8.108;2023-04-03T08:41:54;4.27;;;2.70;;
4519;SDS011;2272;49.226;8.108;2023-04-03T08:44:25;2.97;;;2.57;;
4519;SDS011;2272;49.226;8.108;2023-04-03T08:47:04;2.60;;;2.40;;
4519;SDS011;2272;49.226;8.108;2023-04-03T08:49:42;9.57;;;2.87;;
4519;SDS011;2272;49.226;8.108;2023-04-03T08:52:13;2.83;;;2.27;;
4519;SDS011;2272;49.226;8.108;2023-04-03T08:54:48;3.10;;;2.57;;
4519;SDS011;2272;49.226;8.108;2023-04-03T08:57:17;3.27;;;2.20;;
4519;SDS011;2272;49.226;8.108;2023-04-03T08:59:47;3.20;;;2.13;;
4519;SDS011;2272;49.226;8.108;2023-04-03T09:02:21;3.73;;;2.00;;
4519;SDS011;2272;49.226;8.108;2023-04-03T09:04:52;3.60;;;2.40;;
4519;SDS011;2272;49.226;8.108;2023-04-03T09:07:20;3.37;;;1.97;;
4519;SDS011;2272;49.226;8.108;2023-04-03T09:09:50;3.40;;;2.20;;
4519;SDS011;2272;49.226;8.108;2023-04-03T09:12:20;3.83;;;1.90;;
4519;SDS011;2272;49.226;8.108;2023-04-03T09:14:55;4.10;;;1.90;;
4519;SDS011;2272;49.226;8.108;2023-04-03T09:17:33;2.83;;;2.03;;
4519;SDS011;2272;49.226;8.108;2023-04-03T09:20:10;1.83;;;1.70;;
4519;SDS011;2272;49.226;8.108;2023-04-03T09:22:43;11.33;;;2.20;;
4519;SDS011;2272;49.226;8.108;2023-04-03T09:25:12;10.30;;;2.30;;
4519;SDS011;2272;49.226;8.108;2023-04-03T09:27:41;3.97;;;1.67;;
4519;SDS011;2272;49.226;8.108;2023-04-03T09:30:14;6.10;;;1.90;;
4519;SDS011;2272;49.226;8.108;2023-04-03T09:32:43;3.53;;;2.40;;
4519;SDS011;2272;49.226;8.108;2023-04-03T09:35:16;2.97;;;2.10;;
4519;SDS011;2272;49.226;8.108;2023-04-03T09:37:47;2.30;;;2.10;;
4519;SDS011;2272;49.226;8.108;2023-04-03T09:40:28;3.07;;;2.20;;
4519;SDS011;2272;49.226;8.108;2023-04-03T09:42:59;5.00;;;2.07;;
4519;SDS011;2272;49.226;8.108;2023-04-03T09:45:31;3.53;;;2.23;;
4519;SDS011;2272;49.226;8.108;2023-04-03T09:48:08;2.00;;;1.53;;
4519;SDS011;2272;49.226;8.108;2023-04-03T09:50:52;1.77;;;1.67;;
4519;SDS011;2272;49.226;8.108;2023-04-03T09:53:27;5.07;;;2.00;;
4519;SDS011;2272;49.226;8.108;2023-04-03T09:55:56;2.70;;;1.90;;
4519;SDS011;2272;49.226;8.108;2023-04-03T09:58:25;5.00;;;2.00;;
4519;SDS011;2272;49.226;8.108;2023-04-03T10:00:55;2.50;;;1.97;;
4519;SDS011;2272;49.226;8.108;2023-04-03T10:03:24;6.00;;;2.00;;
4519;SDS011;2272;49.226;8.108;2023-04-03T10:05:54;3.40;;;1.83;;
4519;SDS011;2272;49.226;8.108;2023-04-03T10:08:23;3.63;;;1.60;;
4519;SDS011;2272;49.226;8.108;2023-04-03T10:11:08;3.53;;;1.60;;
4519;SDS011;2272;49.226;8.108;2023-04-03T10:13:49;2.30;;;1.60;;
4519;SDS011;2272;49.226;8.108;2023-04-03T10:16:20;3.20;;;1.90;;
4519;SDS011;2272;49.226;8.108;2023-04-03T10:18:54;1.93;;;1.83;;
4519;SDS011;2272;49.226;8.108;2023-04-03T10:21:31;2.47;;;1.70;;
4519;SDS011;2272;49.226;8.108;2023-04-03T10:24:09;2.83;;;1.70;;
4519;SDS011;2272;49.226;8.108;2023-04-03T10:26:42;2.53;;;1.40;;
4519;SDS011;2272;49.226;8.108;2023-04-03T10:29:20;4.63;;;2.23;;
4519;SDS011;2272;49.226;8.108;2023-04-03T10:32:07;4.23;;;2.03;;
4519;SDS011;2272;49.226;8.108;2023-04-03T10:34:50;1.83;;;1.73;;
4519;SDS011;2272;49.226;8.108;2023-04-03T10:37:24;2.37;;;1.73;;
4519;SDS011;2272;49.226;8.108;2023-04-03T10:40:02;2.23;;;1.30;;
4519;SDS011;2272;49.226;8.108;2023-04-03T10:42:38;2.57;;;1.50;;
4519;SDS011;2272;49.226;8.108;2023-04-03T10:45:17;3.80;;;1.90;;
4519;SDS011;2272;49.226;8.108;2023-04-03T10:47:56;1.70;;;1.60;;
4519;SDS011;2272;49.226;8.108;2023-04-03T10:50:33;3.43;;;1.60;;
4519;SDS011;2272;49.226;8.108;2023-04-03T10:53:07;1.60;;;1.50;;
4519;SDS011;2272;49.226;8.108;2023-04-03T10:55:43;5.07;;;1.57;;
4519;SDS011;2272;49.226;8.108;2023-04-03T10:58:21;3.90;;;1.40;;
4519;SDS011;2272;49.226;8.108;2023-04-03T11:00:54;3.77;;;2.00;;
4519;SDS011;2272;49.226;8.108;2023-04-03T11:03:29;4.03;;;1.60;;
4519;SDS011;2272;49.226;8.108;2023-04-03T11:05:59;4.23;;;1.80;;
4519;SDS011;2272;49.226;8.108;2023-04-03T11:08:28;18.67;;;1.97;;
4519;SDS011;2272;49.226;8.108;2023-04-03T11:11:00;1.80;;;1.70;;
4519;SDS011;2272;49.226;8.108;2023-04-03T11:13:33;1.77;;;1.53;;
4519;SDS011;2272;49.226;8.108;2023-04-03T11:16:02;2.47;;;1.97;;
4519;SDS011;2272;49.226;8.108;2023-04-03T11:18:34;7.23;;;4.40;;
4519;SDS011;2272;49.226;8.108;2023-04-03T11:21:07;5.10;;;2.33;;
4519;SDS011;2272;49.226;8.108;2023-04-03T11:23:39;1.40;;;1.30;;
4519;SDS011;2272;49.226;8.108;2023-04-03T11:26:10;2.50;;;1.50;;
4519;SDS011;2272;49.226;8.108;2023-04-03T11:28:38;2.60;;;1.70;;
4519;SDS011;2272;49.226;8.108;2023-04-03T11:31:09;4.50;;;2.57;;
4519;SDS011;2272;49.226;8.108;2023-04-03T11:33:51;3.70;;;1.90;;
4519;SDS011;2272;49.226;8.108;2023-04-03T11:36:25;2.30;;;1.23;;
4519;SDS011;2272;49.226;8.108;2023-04-03T11:38:56;1.60;;;1.50;;
4519;SDS011;2272;49.226;8.108;2023-04-03T11:41:27;3.33;;;1.73;;
4519;SDS011;2272;49.226;8.108;2023-04-03T11:43:57;2.00;;;1.80;;
4519;SDS011;2272;49.226;8.108;2023-04-03T11:52:28;1.47;;;1.37;;
4519;SDS011;2272;49.226;8.108;2023-04-03T11:58:26;1.87;;;1.40;;
4519;SDS011;2272;49.226;8.108;2023-04-03T12:00:56;6.27;;;1.80;;
4519;SDS011;2272;49.226;8.108;2023-04-03T12:09:30;1.30;;;1.30;;
4519;SDS011;2272;49.226;8.108;2023-04-03T12:12:00;2.27;;;1.40;;
4519;SDS011;2272;49.226;8.108;2023-04-03T12:14:47;2.80;;;1.53;;
4519;SDS011;2272;49.226;8.108;2023-04-03T12:17:18;3.83;;;1.80;;
4519;SDS011;2272;49.226;8.108;2023-04-03T12:19:49;4.87;;;1.77;;
4519;SDS011;2272;49.226;8.108;2023-04-03T12:22:16;1.63;;;1.30;;
4519;SDS011;2272;49.226;8.108;2023-04-03T12:24:47;2.33;;;1.70;;
4519;SDS011;2272;49.226;8.108;2023-04-03T12:27:22;1.30;;;1.20;;
4519;SDS011;2272;49.226;8.108;2023-04-03T12:30:00;1.00;;;1.00;;
4519;SDS011;2272;49.226;8.108;2023-04-03T12:35:28;1.40;;;1.30;;
4519;SDS011;2272;49.226;8.108;2023-04-03T12:40:58;2.23;;;1.20;;
4519;SDS011;2272;49.226;8.108;2023-04-03T12:43:43;1.40;;;1.30;;
4519;SDS011;2272;49.226;8.108;2023-04-03T12:46:21;1.63;;;1.37;;
4519;SDS011;2272;49.226;8.108;2023-04-03T12:48:50;5.07;;;1.63;;
4519;SDS011;2272;49.226;8.108;2023-04-03T12:51:19;3.23;;;1.80;;
4519;SDS011;2272;49.226;8.108;2023-04-03T12:53:48;1.77;;;1.53;;
4519;SDS011;2272;49.226;8.108;2023-04-03T12:56:19;1.30;;;1.20;;
4519;SDS011;2272;49.226;8.108;2023-04-03T12:58:48;1.73;;;1.60;;
4519;SDS011;2272;49.226;8.108;2023-04-03T13:01:16;1.87;;;1.40;;
4519;SDS011;2272;49.226;8.108;2023-04-03T13:03:47;3.90;;;1.60;;
4519;SDS011;2272;49.226;8.108;2023-04-03T13:06:17;2.17;;;1.80;;
4519;SDS011;2272;49.226;8.108;2023-04-03T13:08:49;1.37;;;1.27;;
4519;SDS011;2272;49.226;8.108;2023-04-03T13:11:18;4.37;;;1.87;;
4519;SDS011;2272;49.226;8.108;2023-04-03T13:13:57;1.00;;;1.00;;
4519;SDS011;2272;49.226;8.108;2023-04-03T13:16:25;1.33;;;1.33;;
4519;SDS011;2272;49.226;8.108;2023-04-03T13:18:52;1.83;;;1.70;;
4519;SDS011;2272;49.226;8.108;2023-04-03T13:21:21;3.80;;;1.63;;
4519;SDS011;2272;49.226;8.108;2023-04-03T13:23:51;2.07;;;1.70;;
4519;SDS011;2272;49.226;8.108;2023-04-03T13:26:22;4.40;;;1.47;;
4519;SDS011;2272;49.226;8.108;2023-04-03T13:28:52;1.70;;;1.60;;
4519;SDS011;2272;49.226;8.108;2023-04-03T13:31:25;15.90;;;1.87;;
4519;SDS011;2272;49.226;8.108;2023-04-03T13:33:55;1.87;;;1.50;;
4519;SDS011;2272;49.226;8.108;2023-04-03T13:36:25;1.60;;;1.50;;
4519;SDS011;2272;49.226;8.108;2023-04-03T13:38:59;2.20;;;2.00;;
4519;SDS011;2272;49.226;8.108;2023-04-03T13:41:30;2.03;;;1.70;;
4519;SDS011;2272;49.226;8.108;2023-04-03T13:46:54;1.83;;;1.60;;
4519;SDS011;2272;49.226;8.108;2023-04-03T13:49:29;1.40;;;1.30;;
4519;SDS011;2272;49.226;8.108;2023-04-03T13:51:59;1.83;;;1.67;;
4519;SDS011;2272;49.226;8.108;2023-04-03T13:54:29;2.13;;;1.93;;
4519;SDS011;2272;49.226;8.108;2023-04-03T13:56:59;6.50;;;1.80;;
4519;SDS011;2272;49.226;8.108;2023-04-03T13:59:29;3.47;;;2.10;;
4519;SDS011;2272;49.226;8.108;2023-04-03T14:02:09;1.67;;;1.33;;
4519;SDS011;2272;49.226;8.108;2023-04-03T14:04:50;2.10;;;1.70;;
4519;SDS011;2272;49.226;8.108;2023-04-03T14:07:21;5.43;;;2.80;;
4519;SDS011;2272;49.226;8.108;2023-04-03T14:09:48;3.07;;;1.40;;
4519;SDS011;2272;49.226;8.108;2023-04-03T14:12:17;2.10;;;1.87;;
4519;SDS011;2272;49.226;8.108;2023-04-03T14:14:47;4.37;;;1.90;;
4519;SDS011;2272;49.226;8.108;2023-04-03T14:17:15;1.70;;;1.60;;
4519;SDS011;2272;49.226;8.108;2023-04-03T14:19:44;2.73;;;2.20;;
4519;SDS011;2272;49.226;8.108;2023-04-03T14:22:13;3.70;;;1.80;;
4519;SDS011;2272;49.226;8.108;2023-04-03T14:24:42;3.57;;;1.73;;
4519;SDS011;2272;49.226;8.108;2023-04-03T14:27:11;1.97;;;1.87;;
4519;SDS011;2272;49.226;8.108;2023-04-03T14:29:44;1.70;;;1.60;;
4519;SDS011;2272;49.226;8.108;2023-04-03T14:32:12;7.13;;;2.43;;
4519;SDS011;2272;49.226;8.108;2023-04-03T14:34:40;2.70;;;1.60;;
4519;SDS011;2272;49.226;8.108;2023-04-03T14:37:09;1.97;;;1.77;;
4519;SDS011;2272;49.226;8.108;2023-04-03T14:39:37;8.47;;;2.57;;
4519;SDS011;2272;49.226;8.108;2023-04-03T14:42:04;4.70;;;2.40;;
4519;SDS011;2272;49.226;8.108;2023-04-03T14:44:31;5.10;;;1.77;;
4519;SDS011;2272;49.226;8.108;2023-04-03T14:46:59;1.60;;;1.50;;
4519;SDS011;2272;49.226;8.108;2023-04-03T14:49:27;2.70;;;2.17;;
4519;SDS011;2272;49.226;8.108;2023-04-03T14:51:55;2.30;;;1.83;;
4519;SDS011;2272;49.226;8.108;2023-04-03T14:54:22;7.23;;;2.13;;
4519;SDS011;2272;49.226;8.108;2023-04-03T14:56:52;2.27;;;2.07;;
4519;SDS011;2272;49.226;8.108;2023-04-03T14:59:20;2.27;;;1.53;;
4519;SDS011;2272;49.226;8.108;2023-04-03T15:01:47;2.93;;;2.20;;
4519;SDS011;2272;49.226;8.108;2023-04-03T15:04:16;5.47;;;2.97;;
4519;SDS011;2272;49.226;8.108;2023-04-03T15:06:44;5.20;;;1.60;;
4519;SDS011;2272;49.226;8.108;2023-04-03T15:09:15;8.53;;;2.23;;
4519;SDS011;2272;49.226;8.108;2023-04-03T15:11:46;19.63;;;2.07;;
4519;SDS011;2272;49.226;8.108;2023-04-03T15:14:16;2.90;;;2.17;;
4519;SDS011;2272;49.226;8.108;2023-04-03T15:16:43;3.00;;;2.00;;
4519;SDS011;2272;49.226;8.108;2023-04-03T15:19:10;2.80;;;1.97;;
4519;SDS011;2272;49.226;8.108;2023-04-03T15:21:38;2.40;;;1.33;;
4519;SDS011;2272;49.226;8.108;2023-04-03T15:24:05;3.10;;;2.13;;
4519;SDS011;2272;49.226;8.108;2023-04-03T15:26:33;3.80;;;2.17;;
4519;SDS011;2272;49.226;8.108;2023-04-03T15:28:59;2.20;;;1.93;;
4519;SDS011;2272;49.226;8.108;2023-04-03T15:31:27;3.33;;;2.40;;
4519;SDS011;2272;49.226;8.108;2023-04-03T15:33:53;2.30;;;2.10;;
4519;SDS011;2272;49.226;8.108;2023-04-03T15:36:20;1.90;;;1.80;;
4519;SDS011;2272;49.226;8.108;2023-04-03T15:38:48;2.40;;;2.20;;
4519;SDS011;2272;49.226;8.108;2023-04-03T15:41:15;3.90;;;2.50;;
4519;SDS011;2272;49.226;8.108;2023-04-03T15:43:42;8.43;;;2.03;;
4519;SDS011;2272;49.226;8.108;2023-04-03T15:46:09;2.60;;;2.37;;
4519;SDS011;2272;49.226;8.108;2023-04-03T15:48:36;3.20;;;1.97;;
4519;SDS011;2272;49.226;8.108;2023-04-03T15:51:03;2.00;;;1.87;;
4519;SDS011;2272;49.226;8.108;2023-04-03T15:53:31;2.47;;;2.27;;
4519;SDS011;2272;49.226;8.108;2023-04-03T15:55:59;2.10;;;2.00;;